createdAt,value
2019-01-24T00:01:08.051Z,38.63
2019-01-24T00:03:36.541Z,37.67
2019-01-24T00:06:08.726Z,38.73
2019-01-24T00:08:37.617Z,36.53
2019-01-24T00:11:06.749Z,36.30
2019-01-24T00:13:37.858Z,39.13
2019-01-24T00:16:09.736Z,38.13
2019-01-24T00:18:38.728Z,34.97
2019-01-24T00:21:07.580Z,33.90
2019-01-24T00:23:38.335Z,33.50
2019-01-24T00:26:07.101Z,34.47
2019-01-24T00:28:35.916Z,35.03
2019-01-24T00:31:05.196Z,35.10
2019-01-24T00:33:34.105Z,35.80
2019-01-24T00:36:02.853Z,34.37
2019-01-24T00:38:31.970Z,34.20
2019-01-24T00:41:00.984Z,33.67
2019-01-24T00:43:30.694Z,33.97
2019-01-24T00:45:59.580Z,34.10
2019-01-24T00:51:06.680Z,32.07
2019-01-24T00:53:35.449Z,35.70
2019-01-24T00:56:05.470Z,32.13
2019-01-24T00:58:34.374Z,33.73
2019-01-24T01:01:03.475Z,32.57
2019-01-24T01:03:32.359Z,34.77
2019-01-24T01:06:01.466Z,36.07
2019-01-24T01:08:30.347Z,34.80
2019-01-24T01:11:00.875Z,34.60
2019-01-24T01:13:29.766Z,34.03
2019-01-24T01:15:58.656Z,37.13
2019-01-24T01:18:27.403Z,34.33
2019-01-24T01:20:56.229Z,35.83
2019-01-24T01:23:25.620Z,37.77
2019-01-24T01:25:54.911Z,35.63
2019-01-24T01:28:24.234Z,35.67
2019-01-24T01:30:56.645Z,37.90
2019-01-24T01:33:25.393Z,36.67
2019-01-24T01:35:54.285Z,37.47
2019-01-24T01:38:23.077Z,36.83
2019-01-24T01:40:55.037Z,36.13
2019-01-24T01:43:23.958Z,36.53
2019-01-24T01:45:53.379Z,38.30
2019-01-24T01:48:22.199Z,35.33
2019-01-24T01:50:51.144Z,36.87
2019-01-24T01:53:20.900Z,39.37
2019-01-24T01:55:49.689Z,37.83
2019-01-24T01:58:18.604Z,39.53
2019-01-24T02:00:47.492Z,35.73
2019-01-24T02:03:16.382Z,36.23
2019-01-24T02:05:45.374Z,34.03
2019-01-24T02:08:14.268Z,35.00
2019-01-24T02:10:43.142Z,34.87
2019-01-24T02:13:12.048Z,33.20
2019-01-24T02:15:40.942Z,35.40
2019-01-24T02:18:10.032Z,32.80
2019-01-24T02:20:38.926Z,32.10
2019-01-24T02:23:07.816Z,32.37
2019-01-24T02:25:37.137Z,31.03
2019-01-24T02:28:06.213Z,31.67
2019-01-24T02:30:37.253Z,31.10
2019-01-24T02:33:06.343Z,32.50
2019-01-24T02:35:35.060Z,30.80
2019-01-24T02:38:06.156Z,28.73
2019-01-24T02:40:34.937Z,30.40
2019-01-24T02:43:03.852Z,29.77
2019-01-24T02:45:32.749Z,28.90
2019-01-24T02:48:01.509Z,30.00
2019-01-24T02:50:30.319Z,29.30
2019-01-24T02:53:02.489Z,29.07
2019-01-24T02:55:32.179Z,28.77
2019-01-24T02:58:01.499Z,28.80
2019-01-24T03:00:30.386Z,28.03
2019-01-24T03:02:59.163Z,28.50
2019-01-24T03:05:28.041Z,27.80
2019-01-24T03:07:57.059Z,25.87
2019-01-24T03:10:25.820Z,26.53
2019-01-24T03:12:54.737Z,26.20
2019-01-24T03:15:23.627Z,27.63
2019-01-24T03:17:53.498Z,27.30
2019-01-24T03:20:22.436Z,24.00
2019-01-24T03:22:51.196Z,24.00
2019-01-24T03:25:20.119Z,23.33
2019-01-24T03:27:48.951Z,26.17
2019-01-24T03:30:23.322Z,23.40
2019-01-24T03:32:52.312Z,25.10
2019-01-24T03:35:23.578Z,23.87
2019-01-24T03:37:52.346Z,24.67
2019-01-24T03:40:21.687Z,25.03
2019-01-24T03:42:50.719Z,24.20
2019-01-24T03:45:19.730Z,24.90
2019-01-24T03:47:48.649Z,24.80
2019-01-24T03:50:19.166Z,24.33
2019-01-24T03:52:48.644Z,26.37
2019-01-24T03:55:19.397Z,25.13
2019-01-24T03:57:48.262Z,26.30
2019-01-24T04:00:22.194Z,24.47
2019-01-24T04:02:51.139Z,22.50
2019-01-24T04:05:20.277Z,26.13
2019-01-24T04:07:49.169Z,24.33
2019-01-24T04:10:22.386Z,25.77
2019-01-24T04:12:51.492Z,22.80
2019-01-24T04:15:22.392Z,26.83
2019-01-24T04:17:51.230Z,24.67
2019-01-24T04:20:20.050Z,25.13
2019-01-24T04:22:48.862Z,23.97
2019-01-24T04:25:17.958Z,22.57
2019-01-24T04:27:46.723Z,25.70
2019-01-24T04:30:21.642Z,26.10
2019-01-24T04:32:50.629Z,25.83
2019-01-24T04:35:20.294Z,23.63
2019-01-24T04:37:49.475Z,22.30
2019-01-24T04:40:20.008Z,21.73
2019-01-24T04:42:49.109Z,24.17
2019-01-24T04:45:18.623Z,25.23
2019-01-24T04:47:47.471Z,22.33
2019-01-24T04:50:23.737Z,23.60
2019-01-24T04:52:53.468Z,24.47
2019-01-24T04:55:22.359Z,25.07
2019-01-24T04:57:58.884Z,25.50
2019-01-24T05:00:32.835Z,24.37
2019-01-24T05:03:01.655Z,22.93
2019-01-24T05:05:30.420Z,22.57
2019-01-24T05:07:59.175Z,21.70
2019-01-24T05:10:28.061Z,23.47
2019-01-24T05:12:56.879Z,22.47
2019-01-24T05:15:25.945Z,23.03
2019-01-24T05:17:54.868Z,21.33
2019-01-24T05:20:23.478Z,21.27
2019-01-24T05:22:52.439Z,23.47
2019-01-24T05:25:24.332Z,20.63
2019-01-24T05:27:53.292Z,22.77
2019-01-24T05:30:24.048Z,21.90
2019-01-24T05:32:52.920Z,20.77
2019-01-24T05:35:21.823Z,20.87
2019-01-24T05:37:50.707Z,22.37
2019-01-24T05:40:26.765Z,20.13
2019-01-24T05:42:55.654Z,20.57
2019-01-24T05:45:24.816Z,21.03
2019-01-24T05:47:53.841Z,20.67
2019-01-24T05:50:22.577Z,22.17
2019-01-24T05:52:51.420Z,20.83
2019-01-24T05:55:20.308Z,20.40
2019-01-24T05:57:48.985Z,19.63
2019-01-24T06:00:24.448Z,22.47
2019-01-24T06:02:54.966Z,21.57
2019-01-24T06:05:23.735Z,21.20
2019-01-24T06:07:52.468Z,21.20
2019-01-24T06:10:24.033Z,22.87
2019-01-24T06:12:53.198Z,22.63
2019-01-24T06:15:25.359Z,20.40
2019-01-24T06:17:54.250Z,18.07
2019-01-24T06:20:22.933Z,23.43
2019-01-24T06:22:51.700Z,23.47
2019-01-24T06:25:20.473Z,21.00
2019-01-24T06:27:49.274Z,21.27
2019-01-24T06:30:20.550Z,21.87
2019-01-24T06:32:49.462Z,22.47
2019-01-24T06:35:18.640Z,24.20
2019-01-24T06:37:47.731Z,23.27
2019-01-24T06:40:17.433Z,23.17
2019-01-24T06:42:47.860Z,22.97
2019-01-24T06:45:19.931Z,21.97
2019-01-24T06:47:48.969Z,20.93
2019-01-24T06:50:19.019Z,22.97
2019-01-24T06:52:47.807Z,20.47
2019-01-24T06:55:22.125Z,21.07
2019-01-24T06:57:50.936Z,21.63
2019-01-24T07:00:20.822Z,22.03
2019-01-24T07:02:49.637Z,23.90
2019-01-24T07:05:18.615Z,22.63
2019-01-24T07:07:47.623Z,20.47
2019-01-24T07:10:18.773Z,21.23
2019-01-24T07:12:49.195Z,19.57
2019-01-24T07:15:20.621Z,21.57
2019-01-24T07:17:49.438Z,21.80
2019-01-24T07:20:20.051Z,21.87
2019-01-24T07:22:49.259Z,21.43
2019-01-24T07:25:24.709Z,21.60
2019-01-24T07:27:56.257Z,21.03
2019-01-24T07:30:24.982Z,20.83
2019-01-24T07:32:54.858Z,20.77
2019-01-24T07:35:23.750Z,21.23
2019-01-24T07:37:52.641Z,21.77
2019-01-24T07:40:21.741Z,21.67
2019-01-24T07:42:52.038Z,23.73
2019-01-24T07:45:32.826Z,22.60
2019-01-24T07:48:03.159Z,22.50
2019-01-24T07:50:32.247Z,22.47
2019-01-24T07:53:01.069Z,23.07
2019-01-24T07:55:31.341Z,24.13
2019-01-24T07:58:00.136Z,26.20
2019-01-24T08:00:30.191Z,23.60
2019-01-24T08:02:59.145Z,23.50
2019-01-24T08:05:29.996Z,20.93
2019-01-24T08:07:58.793Z,22.67
2019-01-24T08:10:33.924Z,21.07
2019-01-24T08:13:03.254Z,21.40
2019-01-24T08:15:32.049Z,21.83
2019-01-24T08:18:00.708Z,23.00
2019-01-24T08:20:29.620Z,24.67
2019-01-24T08:23:00.584Z,22.07
2019-01-24T08:25:29.501Z,23.27
2019-01-24T08:27:58.409Z,22.87
2019-01-24T08:30:30.167Z,23.07
2019-01-24T08:32:58.967Z,23.67
2019-01-24T08:35:29.627Z,23.73
2019-01-24T08:38:00.932Z,21.80
2019-01-24T08:40:30.216Z,22.53
2019-01-24T08:42:59.328Z,22.87
2019-01-24T08:45:29.837Z,23.63
2019-01-24T08:47:59.016Z,22.03
2019-01-24T08:50:32.686Z,25.07
2019-01-24T08:53:01.953Z,23.43
2019-01-24T08:55:36.172Z,24.40
2019-01-24T08:58:05.902Z,22.63
2019-01-24T09:00:34.647Z,21.30
2019-01-24T09:03:03.559Z,22.93
2019-01-24T09:05:36.786Z,21.90
2019-01-24T09:08:05.615Z,21.40
2019-01-24T09:10:36.896Z,22.47
2019-01-24T09:13:06.336Z,20.47
2019-01-24T09:15:35.143Z,21.53
2019-01-24T09:18:06.020Z,21.10
2019-01-24T09:20:37.814Z,22.07
2019-01-24T09:23:06.664Z,22.20
2019-01-24T09:25:42.729Z,22.03
2019-01-24T09:28:15.064Z,24.20
2019-01-24T09:30:42.337Z,24.13
2019-01-24T09:33:11.240Z,23.13
2019-01-24T09:35:40.135Z,21.27
2019-01-24T09:38:11.235Z,23.37
2019-01-24T09:40:39.932Z,22.10
2019-01-24T09:43:09.111Z,25.07
2019-01-24T09:45:37.837Z,24.90
2019-01-24T09:48:07.226Z,21.57
2019-01-24T09:50:37.762Z,22.67
2019-01-24T09:53:06.542Z,23.93
2019-01-24T09:55:35.319Z,22.30
2019-01-24T09:58:04.447Z,22.23
2019-01-24T10:00:36.793Z,23.33
2019-01-24T10:03:08.264Z,24.57
2019-01-24T10:05:37.985Z,23.00
2019-01-24T10:08:07.795Z,23.07
2019-01-24T10:10:36.681Z,22.17
2019-01-24T10:13:07.687Z,21.37
2019-01-24T10:15:36.494Z,26.63
2019-01-24T10:18:05.386Z,23.77
2019-01-24T10:20:34.806Z,21.27
2019-01-24T10:23:03.903Z,22.73
2019-01-24T10:25:35.062Z,22.77
2019-01-24T10:28:04.016Z,22.97
2019-01-24T10:30:33.118Z,24.43
2019-01-24T10:33:05.910Z,22.77
2019-01-24T10:35:37.874Z,23.77
2019-01-24T10:38:06.592Z,24.87
2019-01-24T10:40:35.356Z,22.87
2019-01-24T10:43:04.860Z,22.10
2019-01-24T10:45:33.724Z,23.83
2019-01-24T10:48:02.532Z,22.13
2019-01-24T10:50:31.236Z,21.73
2019-01-24T10:53:00.232Z,22.60
2019-01-24T10:55:32.080Z,21.77
2019-01-24T10:58:01.282Z,22.87
2019-01-24T11:00:41.631Z,21.10
2019-01-24T11:03:22.868Z,23.03
2019-01-24T11:05:51.647Z,23.30
2019-01-24T11:08:20.722Z,23.00
2019-01-24T11:10:49.721Z,24.70
2019-01-24T11:13:19.737Z,22.63
2019-01-24T11:15:50.632Z,24.77
2019-01-24T11:18:19.532Z,22.83
2019-01-24T11:20:48.527Z,22.50
2019-01-24T11:23:18.316Z,22.83
2019-01-24T11:25:47.344Z,23.80
2019-01-24T11:28:16.104Z,24.93
2019-01-24T11:30:44.906Z,22.63
2019-01-24T11:33:13.682Z,25.77
2019-01-24T11:35:45.356Z,24.73
2019-01-24T11:38:15.839Z,22.73
2019-01-24T11:40:44.768Z,25.13
2019-01-24T11:43:16.329Z,23.93
2019-01-24T11:45:51.131Z,25.77
2019-01-24T11:48:20.350Z,22.57
2019-01-24T11:50:55.457Z,24.73
2019-01-24T11:53:28.619Z,24.43
2019-01-24T11:55:57.485Z,24.13
2019-01-24T11:58:28.951Z,25.03
2019-01-24T12:00:58.023Z,24.73
2019-01-24T12:03:27.022Z,24.13
2019-01-24T12:05:58.947Z,25.33
2019-01-24T12:08:27.447Z,24.37
2019-01-24T12:10:56.351Z,24.20
2019-01-24T12:13:28.887Z,26.00
2019-01-24T12:16:10.980Z,24.73
2019-01-24T12:18:40.725Z,25.80
2019-01-24T12:21:14.389Z,25.07
2019-01-24T12:23:43.098Z,25.43
2019-01-24T12:26:11.907Z,25.50
2019-01-24T12:28:40.687Z,25.57
2019-01-24T12:31:09.576Z,26.80
2019-01-24T12:33:38.623Z,27.90
2019-01-24T12:36:07.474Z,26.60
2019-01-24T12:38:36.788Z,26.50
2019-01-24T12:41:08.653Z,25.00
2019-01-24T12:43:40.870Z,26.30
2019-01-24T12:46:12.252Z,26.63
2019-01-24T12:48:40.850Z,27.20
2019-01-24T12:51:09.712Z,27.30
2019-01-24T12:53:38.622Z,24.97
2019-01-24T12:56:07.803Z,26.97
2019-01-24T12:58:36.591Z,27.53
2019-01-24T13:01:05.413Z,27.33
2019-01-24T13:03:35.655Z,25.27
2019-01-24T13:06:04.712Z,27.10
2019-01-24T13:08:36.625Z,25.40
2019-01-24T13:11:05.403Z,26.93
2019-01-24T13:13:47.808Z,27.50
2019-01-24T13:16:20.822Z,26.57
2019-01-24T13:18:58.882Z,26.67
2019-01-24T13:21:27.670Z,26.97
2019-01-24T13:23:56.484Z,26.77
2019-01-24T13:26:25.261Z,26.87
2019-01-24T13:28:54.146Z,27.17
2019-01-24T13:31:22.935Z,25.97
2019-01-24T13:33:52.621Z,26.90
2019-01-24T13:36:21.462Z,26.87
2019-01-24T13:38:50.443Z,27.73
2019-01-24T13:41:21.217Z,26.63
2019-01-24T13:43:51.726Z,25.63
2019-01-24T13:46:24.483Z,26.40
2019-01-24T13:48:53.823Z,26.10
2019-01-24T13:51:22.857Z,26.07
2019-01-24T13:53:57.007Z,27.07
2019-01-24T13:56:25.808Z,26.80
2019-01-24T13:58:54.595Z,26.23
2019-01-24T14:01:28.566Z,27.03
2019-01-24T14:03:57.645Z,27.30
2019-01-24T14:06:26.421Z,26.70
2019-01-24T14:08:59.393Z,27.57
2019-01-24T14:11:28.308Z,28.93
2019-01-24T14:13:57.682Z,28.30
2019-01-24T14:16:27.390Z,25.30
2019-01-24T14:18:56.171Z,28.13
2019-01-24T14:21:25.318Z,27.33
2019-01-24T14:23:54.186Z,26.43
2019-01-24T14:26:22.946Z,27.97
2019-01-24T14:28:54.626Z,25.97
2019-01-24T14:31:25.771Z,27.63
2019-01-24T14:33:54.454Z,29.43
2019-01-24T14:36:25.461Z,32.20
2019-01-24T14:38:53.960Z,28.70
2019-01-24T14:41:23.875Z,28.60
2019-01-24T14:43:52.882Z,27.07
2019-01-24T14:46:21.702Z,27.70
2019-01-24T14:48:50.473Z,26.77
2019-01-24T14:51:19.275Z,28.13
2019-01-24T14:53:49.556Z,27.07
2019-01-24T14:56:18.246Z,27.53
2019-01-24T14:58:47.042Z,25.53
2019-01-24T15:01:17.006Z,27.37
2019-01-24T15:03:51.280Z,27.00
2019-01-24T15:06:20.175Z,25.50
2019-01-24T15:08:49.265Z,27.23
2019-01-24T15:11:37.508Z,26.80
2019-01-24T15:14:06.290Z,27.60
2019-01-24T15:16:35.288Z,25.63
2019-01-24T15:19:04.135Z,26.50
2019-01-24T15:21:36.022Z,25.80
2019-01-24T15:24:06.043Z,27.27
2019-01-24T15:26:35.463Z,26.63
2019-01-24T15:29:04.444Z,26.83
2019-01-24T15:31:33.146Z,29.40
2019-01-24T15:34:05.943Z,29.33
2019-01-24T15:36:32.480Z,28.73
2019-01-24T15:39:02.829Z,29.43
2019-01-24T15:41:31.631Z,31.83
2019-01-24T15:44:05.679Z,30.20
2019-01-24T15:46:37.829Z,28.60
2019-01-24T15:49:12.129Z,31.33
2019-01-24T15:51:40.655Z,31.87
2019-01-24T15:54:09.436Z,35.23
2019-01-24T15:56:38.214Z,34.23
2019-01-24T15:59:08.741Z,38.87
2019-01-24T16:01:37.651Z,31.33
2019-01-24T16:04:06.939Z,30.10
2019-01-24T16:12:21.645Z,31.90
2019-01-24T16:14:54.911Z,31.70
2019-01-24T16:17:25.474Z,31.13
2019-01-24T16:19:55.289Z,32.83
2019-01-24T16:22:28.447Z,32.00
2019-01-24T16:25:00.176Z,32.33
2019-01-24T16:27:30.836Z,29.17
2019-01-24T16:29:59.939Z,29.63
2019-01-24T16:32:30.033Z,30.97
2019-01-24T16:35:01.543Z,30.27
2019-01-24T16:37:32.257Z,29.20
2019-01-24T16:40:05.626Z,30.87
2019-01-24T16:42:37.532Z,29.90
2019-01-24T16:45:10.134Z,29.83
2019-01-24T16:47:39.169Z,28.77
2019-01-24T16:50:10.748Z,29.33
2019-01-24T16:52:41.574Z,29.97
2019-01-24T16:55:13.613Z,28.97
2019-01-24T16:57:51.688Z,28.50
2019-01-24T17:00:41.242Z,32.23
2019-01-24T17:03:13.468Z,30.10
2019-01-24T17:05:42.342Z,28.70
2019-01-24T17:08:16.621Z,30.67
2019-01-24T17:10:47.938Z,29.83
2019-01-24T17:13:17.034Z,29.47
2019-01-24T17:15:47.234Z,27.70
2019-01-24T17:18:24.618Z,29.13
2019-01-24T17:20:53.742Z,29.40
2019-01-24T17:23:22.493Z,29.07
2019-01-24T17:25:55.928Z,31.30
2019-01-24T17:28:24.914Z,30.17
2019-01-24T17:30:53.659Z,28.20
2019-01-24T17:33:29.805Z,29.80
2019-01-24T17:35:58.759Z,28.27
2019-01-24T17:38:27.760Z,30.27
2019-01-24T17:40:56.522Z,31.33
2019-01-24T17:43:27.885Z,28.87
2019-01-24T17:45:56.493Z,29.50
2019-01-24T17:48:26.707Z,31.53
2019-01-24T17:50:55.437Z,33.10
2019-01-24T17:53:24.271Z,31.87
2019-01-24T17:55:55.319Z,30.00
2019-01-24T17:58:27.578Z,30.70
2019-01-24T18:00:57.908Z,30.00
2019-01-24T18:03:27.004Z,31.77
2019-01-24T18:05:55.765Z,30.67
2019-01-24T18:08:31.010Z,31.60
2019-01-24T18:10:56.539Z,30.63
2019-01-24T18:13:28.329Z,30.27
2019-01-24T18:15:57.397Z,29.77
2019-01-24T18:18:26.465Z,31.87
2019-01-24T18:20:56.671Z,31.57
2019-01-24T18:23:25.754Z,30.47
2019-01-24T18:26:02.171Z,30.10
2019-01-24T18:28:32.220Z,29.60
2019-01-24T18:31:00.956Z,28.43
2019-01-24T18:33:32.422Z,28.50
2019-01-24T18:36:02.798Z,31.10
2019-01-24T18:38:38.436Z,30.87
2019-01-24T18:41:08.708Z,32.30
2019-01-24T18:43:36.541Z,33.10
2019-01-24T18:46:06.923Z,33.23
2019-01-24T18:48:35.706Z,32.83
2019-01-24T18:51:04.797Z,33.83
2019-01-24T18:53:34.504Z,35.10
2019-01-24T18:56:03.600Z,34.07
2019-01-24T18:58:35.009Z,35.13
2019-01-24T19:01:07.677Z,33.57
2019-01-24T19:03:56.410Z,33.23
2019-01-24T19:06:27.999Z,32.03
2019-01-24T19:08:56.729Z,32.00
2019-01-24T19:11:25.655Z,31.63
2019-01-24T19:14:15.238Z,33.33
2019-01-24T19:16:43.965Z,33.40
2019-01-24T19:19:16.310Z,32.20
2019-01-24T19:21:49.852Z,30.50
2019-01-24T19:24:18.740Z,31.40
2019-01-24T19:26:50.302Z,29.63
2019-01-24T19:29:32.116Z,31.70
2019-01-24T19:31:54.412Z,29.67
2019-01-24T19:34:25.930Z,31.17
2019-01-24T19:36:57.569Z,31.53
2019-01-24T19:39:26.246Z,31.83
2019-01-24T19:41:59.837Z,33.30
2019-01-24T19:44:29.152Z,32.90
2019-01-24T19:46:59.281Z,30.93
2019-01-24T19:49:28.167Z,31.23
2019-01-24T19:51:57.176Z,31.33
2019-01-24T19:54:27.012Z,32.80
2019-01-24T19:57:01.707Z,30.67
2019-01-24T19:59:36.695Z,34.73
2019-01-24T20:02:08.600Z,32.27
2019-01-24T20:04:37.670Z,33.80
2019-01-24T20:07:08.005Z,33.43
2019-01-24T20:09:38.799Z,30.93
2019-01-24T20:12:30.374Z,33.40
2019-01-24T20:14:59.809Z,31.20
2019-01-24T20:17:28.934Z,29.07
2019-01-24T20:20:02.737Z,30.57
2019-01-24T20:22:33.670Z,32.23
2019-01-24T20:25:09.960Z,34.17
2019-01-24T20:27:39.559Z,32.60
2019-01-24T20:30:16.430Z,31.57
2019-01-24T20:32:46.385Z,31.23
2019-01-24T20:35:30.265Z,33.87
2019-01-24T20:37:59.378Z,31.03
2019-01-24T20:40:28.477Z,32.13
2019-01-24T20:42:57.365Z,35.30
2019-01-24T20:45:29.562Z,32.93
2019-01-24T20:48:03.870Z,34.33
2019-01-24T20:50:32.457Z,33.00
2019-01-24T20:53:06.124Z,33.57
2019-01-24T20:58:15.713Z,32.57
2019-01-24T21:00:51.232Z,33.50
2019-01-24T21:03:20.219Z,32.13
2019-01-24T21:05:48.997Z,34.07
2019-01-24T21:08:18.941Z,33.53
2019-01-24T21:10:50.288Z,33.23
2019-01-24T21:13:19.585Z,33.80
2019-01-24T21:15:51.559Z,33.33
2019-01-24T21:18:20.648Z,34.17
2019-01-24T21:20:52.510Z,33.73
2019-01-24T21:23:27.336Z,32.80
2019-01-24T21:25:57.849Z,35.40
2019-01-24T21:28:27.578Z,34.60
2019-01-24T21:30:56.555Z,34.00
2019-01-24T21:33:29.656Z,32.37
2019-01-24T21:35:58.442Z,33.43
2019-01-24T21:38:27.440Z,35.17
2019-01-24T21:40:56.324Z,32.17
2019-01-24T21:43:28.904Z,32.20
2019-01-24T21:45:57.792Z,30.27
2019-01-24T21:48:30.760Z,32.93
2019-01-24T21:50:59.669Z,32.77
2019-01-24T21:53:28.640Z,30.93
2019-01-24T21:55:59.431Z,31.73
2019-01-24T21:58:30.014Z,33.73
2019-01-24T22:00:59.128Z,29.73
2019-01-24T22:03:27.944Z,31.97
2019-01-24T22:06:07.009Z,32.77
2019-01-24T22:08:36.145Z,30.20
2019-01-24T22:11:06.388Z,30.03
2019-01-24T22:13:35.768Z,30.20
2019-01-24T22:16:06.091Z,30.00
2019-01-24T22:18:36.513Z,31.03
2019-01-24T22:21:06.330Z,29.97
2019-01-24T22:23:35.419Z,29.87
2019-01-24T22:26:12.157Z,31.03
2019-01-24T22:28:40.779Z,30.67
2019-01-24T22:31:10.885Z,29.57
2019-01-24T22:33:39.585Z,30.53
2019-01-24T22:36:08.694Z,32.00
2019-01-24T22:38:39.825Z,31.77
2019-01-24T22:41:08.695Z,28.60
2019-01-24T22:43:37.609Z,29.97
2019-01-24T22:46:09.723Z,30.73
2019-01-24T22:48:40.820Z,30.80
2019-01-24T22:51:11.827Z,29.13
2019-01-24T22:53:40.746Z,31.47
2019-01-24T22:56:09.533Z,31.13
2019-01-24T22:58:38.625Z,29.53
2019-01-24T23:01:19.068Z,29.97
2019-01-24T23:03:49.724Z,30.87
2019-01-24T23:06:19.740Z,28.87
2019-01-24T23:08:48.721Z,29.37
2019-01-24T23:11:18.831Z,30.80
2019-01-24T23:13:48.435Z,30.63
2019-01-24T23:16:22.066Z,30.20
2019-01-24T23:18:53.878Z,29.63
2019-01-24T23:21:26.865Z,29.83
2019-01-24T23:23:55.474Z,28.90
2019-01-24T23:26:25.749Z,29.97
2019-01-24T23:28:56.008Z,29.20
2019-01-24T23:31:26.290Z,29.60
2019-01-24T23:33:55.052Z,30.87
2019-01-24T23:36:23.948Z,30.40
2019-01-24T23:39:15.641Z,29.97
2019-01-24T23:41:44.670Z,29.07
2019-01-24T23:44:15.090Z,29.57
2019-01-24T23:46:48.296Z,30.07
2019-01-24T23:49:17.166Z,29.43
2019-01-24T23:51:46.066Z,30.30
2019-01-24T23:54:15.050Z,30.40
2019-01-24T23:56:43.940Z,31.23
2019-01-24T23:59:13.789Z,29.97
